Clay Springs, Arizona
Current Conditions -  °F | °C
As of 11:15 AM on Monday 20 Oct 2014 (Local Time) from KSOW Reporting Station
Broken Clouds Broken Clouds  
Wind Chill: 61°   Ceiling: 9500
Heat Index: 61°   Visibility: 10mi
Dew Point: 39°   Wind: 5mph
Humidity: 45%   Direction: 20°NNE
Pressure: 30.22"   Gusts: NA
Location:  34.36°N, 110.3°W
Report Text: KSOW 201815Z AUTO 02004KT 10SM BKN095 16/04 A3022 RMK AO2
Loading
Personal Weather Stations






























Interactive Weather Map
Tropical Storm Tracking
New forecast layout! Learn more

10-Day Weather Forecast

Advertisements
Track Severe Weather on mobile